Wied, Texas
Current Conditions -  °F | °C
As of 11:15 AM on Thursday 27 Nov 2014 (Local Time) from K66R Reporting Station
Clear Clear  
Wind Chill: 60°   Ceiling: Unl
Heat Index: 60°   Visibility: 10mi
Dew Point: 31°   Wind: 9mph
Humidity: 34%   Direction: 70°ENE
Pressure: 30.5"   Gusts: NA
Location:  29.3984°N, 96.8256°W
Report Text: K66R 271715Z AUTO 07008KT 040V100 10SM CLR 16/00 A3050 RMK AO2 T01551003
Loading
Personal Weather Stations






























Interactive Weather Map New forecast layout! Learn more

10-Day Weather Forecast

Advertisements
Track Severe Weather on mobile